sensor_id;sensor_type;location;lat;lon;timestamp;temperature;humidity
678;DHT22;321;48.814;9.132;2023-04-28T00:00:01;12.90;99.90
678;DHT22;321;48.814;9.132;2023-04-28T00:02:28;13.00;99.90
678;DHT22;321;48.814;9.132;2023-04-28T00:04:54;12.70;99.90
678;DHT22;321;48.814;9.132;2023-04-28T00:07:19;12.60;99.90
678;DHT22;321;48.814;9.132;2023-04-28T00:09:45;12.50;99.90
678;DHT22;321;48.814;9.132;2023-04-28T00:12:11;12.40;99.90
678;DHT22;321;48.814;9.132;2023-04-28T00:14:36;12.30;99.90
678;DHT22;321;48.814;9.132;2023-04-28T00:17:02;12.30;99.90
678;DHT22;321;48.814;9.132;2023-04-28T00:19:27;12.40;99.90
678;DHT22;321;48.814;9.132;2023-04-28T00:21:53;12.60;99.90
678;DHT22;321;48.814;9.132;2023-04-28T00:24:19;12.50;99.90
678;DHT22;321;48.814;9.132;2023-04-28T00:26:44;12.60;99.90
678;DHT22;321;48.814;9.132;2023-04-28T00:29:10;12.70;99.90
678;DHT22;321;48.814;9.132;2023-04-28T00:31:35;12.70;99.90
678;DHT22;321;48.814;9.132;2023-04-28T00:34:01;12.80;99.90
678;DHT22;321;48.814;9.132;2023-04-28T00:36:26;13.00;99.90
678;DHT22;321;48.814;9.132;2023-04-28T00:38:56;13.00;99.90
678;DHT22;321;48.814;9.132;2023-04-28T00:41:22;13.10;99.90
678;DHT22;321;48.814;9.132;2023-04-28T00:43:48;12.90;99.90
678;DHT22;321;48.814;9.132;2023-04-28T00:46:28;12.80;99.90
678;DHT22;321;48.814;9.132;2023-04-28T00:48:55;12.90;99.90
678;DHT22;321;48.814;9.132;2023-04-28T00:51:20;13.10;99.90
678;DHT22;321;48.814;9.132;2023-04-28T00:53:46;13.40;99.90
678;DHT22;321;48.814;9.132;2023-04-28T00:56:13;13.50;99.90
678;DHT22;321;48.814;9.132;2023-04-28T00:58:40;13.50;99.90
678;DHT22;321;48.814;9.132;2023-04-28T01:01:07;13.50;99.90
678;DHT22;321;48.814;9.132;2023-04-28T01:03:34;13.60;99.90
678;DHT22;321;48.814;9.132;2023-04-28T01:06:05;13.70;99.90
678;DHT22;321;48.814;9.132;2023-04-28T01:08:33;13.70;99.90
678;DHT22;321;48.814;9.132;2023-04-28T01:10:59;13.60;99.90
678;DHT22;321;48.814;9.132;2023-04-28T01:13:24;13.60;99.90
678;DHT22;321;48.814;9.132;2023-04-28T01:15:51;13.60;99.90
678;DHT22;321;48.814;9.132;2023-04-28T01:18:17;13.60;99.90
678;DHT22;321;48.814;9.132;2023-04-28T01:20:42;13.60;99.90
678;DHT22;321;48.814;9.132;2023-04-28T01:23:15;13.60;99.90
678;DHT22;321;48.814;9.132;2023-04-28T01:25:41;13.60;99.90
678;DHT22;321;48.814;9.132;2023-04-28T01:28:08;13.40;99.90
678;DHT22;321;48.814;9.132;2023-04-28T01:30:34;13.20;99.90
678;DHT22;321;48.814;9.132;2023-04-28T01:33:00;13.10;99.90
678;DHT22;321;48.814;9.132;2023-04-28T01:35:26;13.20;99.90
678;DHT22;321;48.814;9.132;2023-04-28T01:37:51;13.40;99.90
678;DHT22;321;48.814;9.132;2023-04-28T01:40:17;13.50;99.90
678;DHT22;321;48.814;9.132;2023-04-28T01:42:42;13.70;99.90
678;DHT22;321;48.814;9.132;2023-04-28T01:45:08;13.60;99.90
678;DHT22;321;48.814;9.132;2023-04-28T01:47:34;13.70;99.90
678;DHT22;321;48.814;9.132;2023-04-28T01:50:00;13.70;99.90
678;DHT22;321;48.814;9.132;2023-04-28T01:52:26;13.70;99.90
678;DHT22;321;48.814;9.132;2023-04-28T01:54:52;13.70;99.90
678;DHT22;321;48.814;9.132;2023-04-28T01:57:18;13.80;99.90
678;DHT22;321;48.814;9.132;2023-04-28T01:59:44;13.80;99.90
678;DHT22;321;48.814;9.132;2023-04-28T02:02:09;13.80;99.90
678;DHT22;321;48.814;9.132;2023-04-28T02:04:37;13.90;99.90
678;DHT22;321;48.814;9.132;2023-04-28T02:07:03;14.00;99.90
678;DHT22;321;48.814;9.132;2023-04-28T02:09:28;14.00;99.90
678;DHT22;321;48.814;9.132;2023-04-28T02:11:54;13.80;99.90
678;DHT22;321;48.814;9.132;2023-04-28T02:14:19;13.60;99.90
678;DHT22;321;48.814;9.132;2023-04-28T02:16:45;13.60;99.90
678;DHT22;321;48.814;9.132;2023-04-28T02:19:10;13.60;99.90
678;DHT22;321;48.814;9.132;2023-04-28T02:21:36;13.80;99.90
678;DHT22;321;48.814;9.132;2023-04-28T02:24:01;13.50;99.90
678;DHT22;321;48.814;9.132;2023-04-28T02:26:27;13.60;99.90
678;DHT22;321;48.814;9.132;2023-04-28T02:28:53;13.70;99.90
678;DHT22;321;48.814;9.132;2023-04-28T02:31:18;13.80;99.90
678;DHT22;321;48.814;9.132;2023-04-28T02:33:44;13.80;99.90
678;DHT22;321;48.814;9.132;2023-04-28T02:36:10;13.80;99.90
678;DHT22;321;48.814;9.132;2023-04-28T02:38:35;13.70;99.90
678;DHT22;321;48.814;9.132;2023-04-28T02:41:03;13.40;99.90
678;DHT22;321;48.814;9.132;2023-04-28T02:43:30;13.50;99.90
678;DHT22;321;48.814;9.132;2023-04-28T02:45:56;13.50;99.90
678;DHT22;321;48.814;9.132;2023-04-28T02:48:22;13.50;99.90
678;DHT22;321;48.814;9.132;2023-04-28T02:50:48;13.50;99.90
678;DHT22;321;48.814;9.132;2023-04-28T02:53:14;13.60;99.90
678;DHT22;321;48.814;9.132;2023-04-28T02:55:40;13.70;99.90
678;DHT22;321;48.814;9.132;2023-04-28T02:58:05;13.80;99.90
678;DHT22;321;48.814;9.132;2023-04-28T03:00:31;13.90;99.90
678;DHT22;321;48.814;9.132;2023-04-28T03:02:56;14.00;99.90
678;DHT22;321;48.814;9.132;2023-04-28T03:05:22;14.10;99.90
678;DHT22;321;48.814;9.132;2023-04-28T03:07:48;14.20;99.90
678;DHT22;321;48.814;9.132;2023-04-28T03:10:13;14.30;99.90
678;DHT22;321;48.814;9.132;2023-04-28T03:12:39;14.40;99.90
678;DHT22;321;48.814;9.132;2023-04-28T03:15:05;14.40;99.90
678;DHT22;321;48.814;9.132;2023-04-28T03:17:33;14.30;99.90
678;DHT22;321;48.814;9.132;2023-04-28T03:20:01;14.30;99.90
678;DHT22;321;48.814;9.132;2023-04-28T03:22:27;14.20;99.90
678;DHT22;321;48.814;9.132;2023-04-28T03:24:52;14.30;99.90
678;DHT22;321;48.814;9.132;2023-04-28T03:27:18;14.20;99.90
678;DHT22;321;48.814;9.132;2023-04-28T03:29:43;14.20;99.90
678;DHT22;321;48.814;9.132;2023-04-28T03:32:09;14.10;99.90
678;DHT22;321;48.814;9.132;2023-04-28T03:34:35;14.20;99.90
678;DHT22;321;48.814;9.132;2023-04-28T03:37:01;14.20;99.90
678;DHT22;321;48.814;9.132;2023-04-28T03:39:26;14.20;99.90
678;DHT22;321;48.814;9.132;2023-04-28T03:41:52;14.20;99.90
678;DHT22;321;48.814;9.132;2023-04-28T03:44:18;14.20;99.90
678;DHT22;321;48.814;9.132;2023-04-28T03:46:43;14.30;99.90
678;DHT22;321;48.814;9.132;2023-04-28T03:49:09;14.20;99.90
678;DHT22;321;48.814;9.132;2023-04-28T03:51:34;14.30;99.90
678;DHT22;321;48.814;9.132;2023-04-28T03:54:00;14.20;99.90
678;DHT22;321;48.814;9.132;2023-04-28T03:56:25;14.20;99.90
678;DHT22;321;48.814;9.132;2023-04-28T03:58:51;14.20;99.90
678;DHT22;321;48.814;9.132;2023-04-28T04:01:16;14.20;99.90
678;DHT22;321;48.814;9.132;2023-04-28T04:03:42;14.20;99.90
678;DHT22;321;48.814;9.132;2023-04-28T04:06:07;14.10;99.90
678;DHT22;321;48.814;9.132;2023-04-28T04:08:33;14.10;99.90
678;DHT22;321;48.814;9.132;2023-04-28T04:10:59;14.10;99.90
678;DHT22;321;48.814;9.132;2023-04-28T04:13:24;14.00;99.90
678;DHT22;321;48.814;9.132;2023-04-28T04:15:50;14.00;99.90
678;DHT22;321;48.814;9.132;2023-04-28T04:18:17;13.90;99.90
678;DHT22;321;48.814;9.132;2023-04-28T04:20:42;14.00;99.90
678;DHT22;321;48.814;9.132;2023-04-28T04:23:08;14.00;99.90
678;DHT22;321;48.814;9.132;2023-04-28T04:25:34;14.00;99.90
678;DHT22;321;48.814;9.132;2023-04-28T04:27:59;14.00;99.90
678;DHT22;321;48.814;9.132;2023-04-28T04:30:25;14.00;99.90
678;DHT22;321;48.814;9.132;2023-04-28T04:32:51;14.00;99.90
678;DHT22;321;48.814;9.132;2023-04-28T04:35:16;14.00;99.90
678;DHT22;321;48.814;9.132;2023-04-28T04:37:43;14.00;99.90
678;DHT22;321;48.814;9.132;2023-04-28T04:40:09;14.00;99.90
678;DHT22;321;48.814;9.132;2023-04-28T04:42:34;14.00;99.90
678;DHT22;321;48.814;9.132;2023-04-28T04:45:00;14.00;99.90
678;DHT22;321;48.814;9.132;2023-04-28T04:47:26;14.10;99.90
678;DHT22;321;48.814;9.132;2023-04-28T04:49:52;14.10;99.90
678;DHT22;321;48.814;9.132;2023-04-28T04:52:18;14.10;99.90
678;DHT22;321;48.814;9.132;2023-04-28T04:54:44;14.10;99.90
678;DHT22;321;48.814;9.132;2023-04-28T04:57:10;14.10;99.90
678;DHT22;321;48.814;9.132;2023-04-28T04:59:36;14.20;99.90
678;DHT22;321;48.814;9.132;2023-04-28T05:02:02;14.20;99.90
678;DHT22;321;48.814;9.132;2023-04-28T05:04:27;14.10;99.90
678;DHT22;321;48.814;9.132;2023-04-28T05:06:53;14.10;99.90
678;DHT22;321;48.814;9.132;2023-04-28T05:09:18;14.20;99.90
678;DHT22;321;48.814;9.132;2023-04-28T05:11:44;14.20;99.90
678;DHT22;321;48.814;9.132;2023-04-28T05:14:10;14.30;99.90
678;DHT22;321;48.814;9.132;2023-04-28T05:16:37;14.20;99.90
678;DHT22;321;48.814;9.132;2023-04-28T05:19:03;14.20;99.90
678;DHT22;321;48.814;9.132;2023-04-28T05:21:29;14.20;99.90
678;DHT22;321;48.814;9.132;2023-04-28T05:23:55;14.20;99.90
678;DHT22;321;48.814;9.132;2023-04-28T05:26:22;14.20;99.90
678;DHT22;321;48.814;9.132;2023-04-28T05:28:47;14.20;99.90
678;DHT22;321;48.814;9.132;2023-04-28T05:31:13;14.20;99.90
678;DHT22;321;48.814;9.132;2023-04-28T05:33:38;14.10;99.90
678;DHT22;321;48.814;9.132;2023-04-28T05:36:04;14.10;99.90
678;DHT22;321;48.814;9.132;2023-04-28T05:38:30;13.80;99.90
678;DHT22;321;48.814;9.132;2023-04-28T05:40:57;13.80;99.90
678;DHT22;321;48.814;9.132;2023-04-28T05:43:22;13.80;99.90
678;DHT22;321;48.814;9.132;2023-04-28T05:45:48;13.80;99.90
678;DHT22;321;48.814;9.132;2023-04-28T05:48:14;13.90;99.90
678;DHT22;321;48.814;9.132;2023-04-28T05:50:40;14.00;99.90
678;DHT22;321;48.814;9.132;2023-04-28T05:53:06;14.00;99.90
678;DHT22;321;48.814;9.132;2023-04-28T05:55:32;14.00;99.90
678;DHT22;321;48.814;9.132;2023-04-28T05:57:58;13.90;99.90
678;DHT22;321;48.814;9.132;2023-04-28T06:00:24;13.90;99.90
678;DHT22;321;48.814;9.132;2023-04-28T06:02:50;13.80;99.90
678;DHT22;321;48.814;9.132;2023-04-28T06:05:15;13.30;99.90
678;DHT22;321;48.814;9.132;2023-04-28T06:07:41;13.30;99.90
678;DHT22;321;48.814;9.132;2023-04-28T06:10:08;13.40;99.90
678;DHT22;321;48.814;9.132;2023-04-28T06:12:34;13.50;99.90
678;DHT22;321;48.814;9.132;2023-04-28T06:15:00;13.70;99.90
678;DHT22;321;48.814;9.132;2023-04-28T06:17:26;13.40;99.90
678;DHT22;321;48.814;9.132;2023-04-28T06:19:51;13.30;99.90
678;DHT22;321;48.814;9.132;2023-04-28T06:22:19;13.40;99.90
678;DHT22;321;48.814;9.132;2023-04-28T06:24:44;13.60;99.90
678;DHT22;321;48.814;9.132;2023-04-28T06:27:10;13.70;99.90
678;DHT22;321;48.814;9.132;2023-04-28T06:29:36;13.70;99.90
678;DHT22;321;48.814;9.132;2023-04-28T06:32:01;13.80;99.90
678;DHT22;321;48.814;9.132;2023-04-28T06:34:27;13.90;99.90
678;DHT22;321;48.814;9.132;2023-04-28T06:36:53;14.00;99.90
678;DHT22;321;48.814;9.132;2023-04-28T06:39:20;14.20;99.90
678;DHT22;321;48.814;9.132;2023-04-28T06:41:46;14.20;99.90
678;DHT22;321;48.814;9.132;2023-04-28T06:44:11;13.90;99.90
678;DHT22;321;48.814;9.132;2023-04-28T06:46:37;13.90;99.90
678;DHT22;321;48.814;9.132;2023-04-28T06:49:03;13.80;99.90
678;DHT22;321;48.814;9.132;2023-04-28T06:51:30;13.70;99.90
678;DHT22;321;48.814;9.132;2023-04-28T06:53:57;13.60;99.90
678;DHT22;321;48.814;9.132;2023-04-28T06:56:23;13.70;99.90
678;DHT22;321;48.814;9.132;2023-04-28T06:58:49;13.60;99.90
678;DHT22;321;48.814;9.132;2023-04-28T07:01:15;13.60;99.90
678;DHT22;321;48.814;9.132;2023-04-28T07:03:41;13.50;99.90
678;DHT22;321;48.814;9.132;2023-04-28T07:06:07;13.20;99.90
678;DHT22;321;48.814;9.132;2023-04-28T07:08:33;13.40;99.90
678;DHT22;321;48.814;9.132;2023-04-28T07:10:59;13.70;99.90
678;DHT22;321;48.814;9.132;2023-04-28T07:13:31;13.60;99.90
678;DHT22;321;48.814;9.132;2023-04-28T07:15:56;13.50;99.90
678;DHT22;321;48.814;9.132;2023-04-28T07:18:22;13.60;99.90
678;DHT22;321;48.814;9.132;2023-04-28T07:20:48;13.50;99.90
678;DHT22;321;48.814;9.132;2023-04-28T07:23:13;13.40;99.90
678;DHT22;321;48.814;9.132;2023-04-28T07:25:39;13.70;99.90
678;DHT22;321;48.814;9.132;2023-04-28T07:28:06;13.90;99.90
678;DHT22;321;48.814;9.132;2023-04-28T07:30:32;14.00;99.90
678;DHT22;321;48.814;9.132;2023-04-28T07:32:58;13.80;99.90
678;DHT22;321;48.814;9.132;2023-04-28T07:35:24;13.90;99.90
678;DHT22;321;48.814;9.132;2023-04-28T07:37:51;14.10;99.90
678;DHT22;321;48.814;9.132;2023-04-28T07:40:17;14.30;99.90
678;DHT22;321;48.814;9.132;2023-04-28T07:42:43;14.40;99.90
678;DHT22;321;48.814;9.132;2023-04-28T07:45:09;14.40;99.90
678;DHT22;321;48.814;9.132;2023-04-28T07:47:35;14.50;99.90
678;DHT22;321;48.814;9.132;2023-04-28T07:50:03;14.60;99.90
678;DHT22;321;48.814;9.132;2023-04-28T07:52:31;14.80;99.90
678;DHT22;321;48.814;9.132;2023-04-28T07:54:57;14.90;99.90
678;DHT22;321;48.814;9.132;2023-04-28T07:57:23;15.00;99.90
678;DHT22;321;48.814;9.132;2023-04-28T07:59:49;15.00;99.90
678;DHT22;321;48.814;9.132;2023-04-28T08:02:14;15.10;99.90
678;DHT22;321;48.814;9.132;2023-04-28T08:04:40;15.10;99.90
678;DHT22;321;48.814;9.132;2023-04-28T08:07:07;15.10;99.90
678;DHT22;321;48.814;9.132;2023-04-28T08:09:33;15.10;99.90
678;DHT22;321;48.814;9.132;2023-04-28T08:11:59;15.20;99.90
678;DHT22;321;48.814;9.132;2023-04-28T08:14:25;15.30;99.90
678;DHT22;321;48.814;9.132;2023-04-28T08:16:51;15.30;99.90
678;DHT22;321;48.814;9.132;2023-04-28T08:19:17;15.40;99.90
678;DHT22;321;48.814;9.132;2023-04-28T08:21:42;15.30;99.90
678;DHT22;321;48.814;9.132;2023-04-28T08:24:08;15.20;99.90
678;DHT22;321;48.814;9.132;2023-04-28T08:26:35;15.00;99.90
678;DHT22;321;48.814;9.132;2023-04-28T08:29:01;14.80;99.90
678;DHT22;321;48.814;9.132;2023-04-28T08:31:27;14.60;99.90
678;DHT22;321;48.814;9.132;2023-04-28T08:33:53;14.60;99.90
678;DHT22;321;48.814;9.132;2023-04-28T08:36:18;14.50;99.90
678;DHT22;321;48.814;9.132;2023-04-28T08:38:44;14.50;99.90
678;DHT22;321;48.814;9.132;2023-04-28T08:41:14;14.60;99.90
678;DHT22;321;48.814;9.132;2023-04-28T08:43:40;14.70;99.90
678;DHT22;321;48.814;9.132;2023-04-28T08:46:08;14.70;99.90
678;DHT22;321;48.814;9.132;2023-04-28T08:48:43;14.80;99.90
678;DHT22;321;48.814;9.132;2023-04-28T08:51:27;14.90;99.90
678;DHT22;321;48.814;9.132;2023-04-28T08:53:57;15.00;99.90
678;DHT22;321;48.814;9.132;2023-04-28T08:56:26;15.00;99.90
678;DHT22;321;48.814;9.132;2023-04-28T08:58:55;15.00;99.90
678;DHT22;321;48.814;9.132;2023-04-28T09:01:21;15.20;99.90
678;DHT22;321;48.814;9.132;2023-04-28T09:03:47;15.30;99.90
678;DHT22;321;48.814;9.132;2023-04-28T09:06:13;15.40;99.90
678;DHT22;321;48.814;9.132;2023-04-28T09:08:39;15.50;99.90
678;DHT22;321;48.814;9.132;2023-04-28T09:11:06;15.60;99.90
678;DHT22;321;48.814;9.132;2023-04-28T09:13:32;15.70;99.90
678;DHT22;321;48.814;9.132;2023-04-28T09:15:59;15.60;99.90
678;DHT22;321;48.814;9.132;2023-04-28T09:18:25;15.60;99.90
678;DHT22;321;48.814;9.132;2023-04-28T09:20:51;15.60;99.90
678;DHT22;321;48.814;9.132;2023-04-28T09:23:19;15.80;99.90
678;DHT22;321;48.814;9.132;2023-04-28T09:26:14;15.90;99.90
678;DHT22;321;48.814;9.132;2023-04-28T09:28:40;16.10;99.90
678;DHT22;321;48.814;9.132;2023-04-28T09:31:21;16.10;99.90
678;DHT22;321;48.814;9.132;2023-04-28T09:33:57;16.20;99.90
678;DHT22;321;48.814;9.132;2023-04-28T09:36:26;16.30;99.90
678;DHT22;321;48.814;9.132;2023-04-28T09:38:56;16.50;99.90
678;DHT22;321;48.814;9.132;2023-04-28T09:41:41;16.80;99.90
678;DHT22;321;48.814;9.132;2023-04-28T09:44:17;17.00;99.90
678;DHT22;321;48.814;9.132;2023-04-28T09:46:44;17.20;99.90
678;DHT22;321;48.814;9.132;2023-04-28T09:49:13;17.50;99.90
678;DHT22;321;48.814;9.132;2023-04-28T09:51:39;17.70;99.90
678;DHT22;321;48.814;9.132;2023-04-28T09:54:07;17.80;99.90
678;DHT22;321;48.814;9.132;2023-04-28T09:56:34;17.90;99.90
678;DHT22;321;48.814;9.132;2023-04-28T09:59:02;18.20;99.90
678;DHT22;321;48.814;9.132;2023-04-28T10:01:40;18.40;99.90
678;DHT22;321;48.814;9.132;2023-04-28T10:04:07;18.80;99.90
678;DHT22;321;48.814;9.132;2023-04-28T10:06:34;19.30;99.90
678;DHT22;321;48.814;9.132;2023-04-28T10:09:02;19.60;99.90
678;DHT22;321;48.814;9.132;2023-04-28T10:11:29;19.90;99.90
678;DHT22;321;48.814;9.132;2023-04-28T10:13:55;20.00;99.90
678;DHT22;321;48.814;9.132;2023-04-28T10:16:21;20.10;99.90
678;DHT22;321;48.814;9.132;2023-04-28T10:18:48;20.40;99.90
678;DHT22;321;48.814;9.132;2023-04-28T10:21:17;20.60;99.90
678;DHT22;321;48.814;9.132;2023-04-28T10:24:17;20.90;99.90
678;DHT22;321;48.814;9.132;2023-04-28T10:27:04;21.10;99.90
678;DHT22;321;48.814;9.132;2023-04-28T10:29:31;21.10;99.90
678;DHT22;321;48.814;9.132;2023-04-28T10:34:42;21.30;99.90
678;DHT22;321;48.814;9.132;2023-04-28T10:37:07;21.20;99.90
678;DHT22;321;48.814;9.132;2023-04-28T10:39:33;21.20;99.90
678;DHT22;321;48.814;9.132;2023-04-28T10:41:59;21.20;99.90
678;DHT22;321;48.814;9.132;2023-04-28T10:47:13;21.30;99.90
678;DHT22;321;48.814;9.132;2023-04-28T11:00:40;20.60;99.90
678;DHT22;321;48.814;9.132;2023-04-28T11:03:06;20.60;99.90
678;DHT22;321;48.814;9.132;2023-04-28T11:05:32;20.70;99.90
678;DHT22;321;48.814;9.132;2023-04-28T11:11:17;21.00;99.90
678;DHT22;321;48.814;9.132;2023-04-28T11:13:44;21.40;99.90
678;DHT22;321;48.814;9.132;2023-04-28T11:16:14;21.40;99.90
678;DHT22;321;48.814;9.132;2023-04-28T11:18:54;21.50;99.90
678;DHT22;321;48.814;9.132;2023-04-28T11:21:21;21.50;99.90
678;DHT22;321;48.814;9.132;2023-04-28T11:23:47;21.50;99.90
678;DHT22;321;48.814;9.132;2023-04-28T11:26:13;21.50;99.90
678;DHT22;321;48.814;9.132;2023-04-28T11:28:57;21.60;99.90
678;DHT22;321;48.814;9.132;2023-04-28T11:31:24;21.70;99.90
678;DHT22;321;48.814;9.132;2023-04-28T11:34:05;21.70;99.90
678;DHT22;321;48.814;9.132;2023-04-28T11:36:32;21.60;99.90
678;DHT22;321;48.814;9.132;2023-04-28T11:38:59;21.40;99.90
678;DHT22;321;48.814;9.132;2023-04-28T11:41:25;21.30;99.90
678;DHT22;321;48.814;9.132;2023-04-28T11:43:51;21.10;99.90
678;DHT22;321;48.814;9.132;2023-04-28T11:46:18;21.10;99.90
678;DHT22;321;48.814;9.132;2023-04-28T11:48:44;20.80;99.90
678;DHT22;321;48.814;9.132;2023-04-28T11:51:29;20.90;99.90
678;DHT22;321;48.814;9.132;2023-04-28T11:53:54;21.00;99.90
678;DHT22;321;48.814;9.132;2023-04-28T11:56:20;21.20;99.90
678;DHT22;321;48.814;9.132;2023-04-28T11:58:45;21.20;99.90
678;DHT22;321;48.814;9.132;2023-04-28T12:01:23;21.30;99.90
678;DHT22;321;48.814;9.132;2023-04-28T12:03:48;21.40;99.90
678;DHT22;321;48.814;9.132;2023-04-28T12:06:17;21.50;99.90
678;DHT22;321;48.814;9.132;2023-04-28T12:08:43;21.50;99.90
678;DHT22;321;48.814;9.132;2023-04-28T12:11:13;21.50;99.90
678;DHT22;321;48.814;9.132;2023-04-28T12:13:39;21.50;99.90
678;DHT22;321;48.814;9.132;2023-04-28T12:16:07;21.50;99.90
678;DHT22;321;48.814;9.132;2023-04-28T12:18:36;21.70;99.90
678;DHT22;321;48.814;9.132;2023-04-28T12:21:03;21.80;99.90
678;DHT22;321;48.814;9.132;2023-04-28T12:23:33;21.80;99.90
678;DHT22;321;48.814;9.132;2023-04-28T12:25:59;21.80;99.90
678;DHT22;321;48.814;9.132;2023-04-28T12:28:38;21.90;99.90
678;DHT22;321;48.814;9.132;2023-04-28T12:31:05;22.00;99.90
678;DHT22;321;48.814;9.132;2023-04-28T12:33:32;21.80;99.90
678;DHT22;321;48.814;9.132;2023-04-28T12:36:05;21.60;99.90
678;DHT22;321;48.814;9.132;2023-04-28T12:38:31;21.40;99.90
678;DHT22;321;48.814;9.132;2023-04-28T12:40:57;21.30;99.90
678;DHT22;321;48.814;9.132;2023-04-28T12:43:23;20.90;99.90
678;DHT22;321;48.814;9.132;2023-04-28T12:45:50;20.60;99.90
678;DHT22;321;48.814;9.132;2023-04-28T12:48:17;20.20;99.90
678;DHT22;321;48.814;9.132;2023-04-28T12:50:43;19.90;99.90
678;DHT22;321;48.814;9.132;2023-04-28T12:53:09;19.60;99.90
678;DHT22;321;48.814;9.132;2023-04-28T12:55:35;19.40;99.90
678;DHT22;321;48.814;9.132;2023-04-28T12:58:01;19.20;99.90
678;DHT22;321;48.814;9.132;2023-04-28T13:00:26;19.10;99.90
678;DHT22;321;48.814;9.132;2023-04-28T13:02:52;19.40;99.90
678;DHT22;321;48.814;9.132;2023-04-28T13:05:17;19.50;99.90
678;DHT22;321;48.814;9.132;2023-04-28T13:07:43;19.80;99.90
678;DHT22;321;48.814;9.132;2023-04-28T13:10:09;19.90;99.90
678;DHT22;321;48.814;9.132;2023-04-28T13:12:35;19.50;99.90
678;DHT22;321;48.814;9.132;2023-04-28T13:15:01;19.50;99.90
678;DHT22;321;48.814;9.132;2023-04-28T13:17:27;19.30;99.90
678;DHT22;321;48.814;9.132;2023-04-28T13:19:52;19.60;99.90
678;DHT22;321;48.814;9.132;2023-04-28T13:22:18;19.60;99.90
678;DHT22;321;48.814;9.132;2023-04-28T13:24:46;19.80;99.90
678;DHT22;321;48.814;9.132;2023-04-28T13:27:11;19.80;99.90
678;DHT22;321;48.814;9.132;2023-04-28T13:29:37;20.00;99.90
678;DHT22;321;48.814;9.132;2023-04-28T13:32:03;20.00;99.90
678;DHT22;321;48.814;9.132;2023-04-28T13:34:29;20.20;99.90
678;DHT22;321;48.814;9.132;2023-04-28T13:36:56;20.30;99.90
678;DHT22;321;48.814;9.132;2023-04-28T13:39:21;20.20;99.90
678;DHT22;321;48.814;9.132;2023-04-28T13:41:48;20.20;99.90
678;DHT22;321;48.814;9.132;2023-04-28T13:44:14;19.90;99.90
678;DHT22;321;48.814;9.132;2023-04-28T13:46:40;19.80;99.90
678;DHT22;321;48.814;9.132;2023-04-28T13:49:08;19.70;99.90
678;DHT22;321;48.814;9.132;2023-04-28T13:51:33;19.90;99.90
678;DHT22;321;48.814;9.132;2023-04-28T13:53:59;19.90;99.90
678;DHT22;321;48.814;9.132;2023-04-28T13:56:29;19.90;99.90
678;DHT22;321;48.814;9.132;2023-04-28T13:58:55;19.80;99.90
678;DHT22;321;48.814;9.132;2023-04-28T14:01:21;19.70;99.90
678;DHT22;321;48.814;9.132;2023-04-28T14:03:46;19.60;99.90
678;DHT22;321;48.814;9.132;2023-04-28T14:06:12;19.60;99.90
678;DHT22;321;48.814;9.132;2023-04-28T14:08:37;19.50;99.90
678;DHT22;321;48.814;9.132;2023-04-28T14:11:03;19.60;99.90
678;DHT22;321;48.814;9.132;2023-04-28T14:13:28;19.60;99.90
678;DHT22;321;48.814;9.132;2023-04-28T14:15:55;19.70;99.90
678;DHT22;321;48.814;9.132;2023-04-28T14:18:21;19.60;99.90
678;DHT22;321;48.814;9.132;2023-04-28T14:20:47;19.60;99.90
678;DHT22;321;48.814;9.132;2023-04-28T14:23:13;19.60;99.90
678;DHT22;321;48.814;9.132;2023-04-28T14:25:39;19.60;99.90
678;DHT22;321;48.814;9.132;2023-04-28T14:28:05;19.40;99.90
678;DHT22;321;48.814;9.132;2023-04-28T14:30:31;19.10;99.90
678;DHT22;321;48.814;9.132;2023-04-28T14:32:56;19.10;99.90
678;DHT22;321;48.814;9.132;2023-04-28T14:35:23;19.10;99.90
678;DHT22;321;48.814;9.132;2023-04-28T14:37:48;19.20;99.90
678;DHT22;321;48.814;9.132;2023-04-28T14:40:14;19.00;99.90
678;DHT22;321;48.814;9.132;2023-04-28T14:42:40;19.00;99.90
678;DHT22;321;48.814;9.132;2023-04-28T14:45:07;19.20;99.90
678;DHT22;321;48.814;9.132;2023-04-28T14:47:34;19.50;99.90
678;DHT22;321;48.814;9.132;2023-04-28T14:50:00;19.80;99.90
678;DHT22;321;48.814;9.132;2023-04-28T14:52:25;19.80;99.90
678;DHT22;321;48.814;9.132;2023-04-28T14:54:54;20.00;99.90
678;DHT22;321;48.814;9.132;2023-04-28T14:57:20;20.20;99.90
678;DHT22;321;48.814;9.132;2023-04-28T14:59:45;20.30;99.90
678;DHT22;321;48.814;9.132;2023-04-28T15:02:11;20.40;99.90
678;DHT22;321;48.814;9.132;2023-04-28T15:04:38;20.30;99.90
678;DHT22;321;48.814;9.132;2023-04-28T15:07:04;20.40;99.90
678;DHT22;321;48.814;9.132;2023-04-28T15:09:29;20.30;99.90
678;DHT22;321;48.814;9.132;2023-04-28T15:11:55;20.30;99.90
678;DHT22;321;48.814;9.132;2023-04-28T15:14:21;20.30;99.90
678;DHT22;321;48.814;9.132;2023-04-28T15:16:47;20.20;99.90
678;DHT22;321;48.814;9.132;2023-04-28T15:19:13;20.20;99.90
678;DHT22;321;48.814;9.132;2023-04-28T15:21:39;20.20;99.90
678;DHT22;321;48.814;9.132;2023-04-28T15:24:05;20.10;99.90
678;DHT22;321;48.814;9.132;2023-04-28T15:26:31;20.00;99.90
678;DHT22;321;48.814;9.132;2023-04-28T15:28:57;20.00;99.90
678;DHT22;321;48.814;9.132;2023-04-28T15:31:23;20.00;99.90
678;DHT22;321;48.814;9.132;2023-04-28T15:33:50;20.00;99.90
678;DHT22;321;48.814;9.132;2023-04-28T15:36:16;19.80;99.90
678;DHT22;321;48.814;9.132;2023-04-28T15:38:43;19.70;99.90
678;DHT22;321;48.814;9.132;2023-04-28T15:41:10;19.40;99.90
678;DHT22;321;48.814;9.132;2023-04-28T15:43:36;19.30;99.90
678;DHT22;321;48.814;9.132;2023-04-28T15:46:03;19.10;99.90
678;DHT22;321;48.814;9.132;2023-04-28T15:48:29;19.10;99.90
678;DHT22;321;48.814;9.132;2023-04-28T15:50:54;18.90;99.90
678;DHT22;321;48.814;9.132;2023-04-28T15:53:20;18.80;99.90
678;DHT22;321;48.814;9.132;2023-04-28T15:55:46;18.70;99.90
678;DHT22;321;48.814;9.132;2023-04-28T15:58:12;18.50;99.90
678;DHT22;321;48.814;9.132;2023-04-28T16:00:38;18.50;99.90
678;DHT22;321;48.814;9.132;2023-04-28T16:03:04;18.40;99.90
678;DHT22;321;48.814;9.132;2023-04-28T16:05:30;18.40;99.90
678;DHT22;321;48.814;9.132;2023-04-28T16:07:56;18.30;99.90
678;DHT22;321;48.814;9.132;2023-04-28T16:10:22;18.30;99.90
678;DHT22;321;48.814;9.132;2023-04-28T16:12:47;18.20;99.90
678;DHT22;321;48.814;9.132;2023-04-28T16:15:13;18.20;99.90
678;DHT22;321;48.814;9.132;2023-04-28T16:17:39;17.90;99.90
678;DHT22;321;48.814;9.132;2023-04-28T16:20:06;17.90;99.90
678;DHT22;321;48.814;9.132;2023-04-28T16:22:33;17.80;99.90
678;DHT22;321;48.814;9.132;2023-04-28T16:24:59;17.80;99.90
678;DHT22;321;48.814;9.132;2023-04-28T16:27:25;17.70;99.90
678;DHT22;321;48.814;9.132;2023-04-28T16:29:51;17.60;99.90
678;DHT22;321;48.814;9.132;2023-04-28T16:32:16;17.50;99.90
678;DHT22;321;48.814;9.132;2023-04-28T16:34:42;17.40;99.90
678;DHT22;321;48.814;9.132;2023-04-28T16:37:08;17.50;99.90
678;DHT22;321;48.814;9.132;2023-04-28T16:39:35;17.40;99.90
678;DHT22;321;48.814;9.132;2023-04-28T16:42:00;17.40;99.90
678;DHT22;321;48.814;9.132;2023-04-28T16:44:28;17.20;99.90
678;DHT22;321;48.814;9.132;2023-04-28T16:46:55;17.20;99.90
678;DHT22;321;48.814;9.132;2023-04-28T16:49:21;17.20;99.90